createdAt,value
2022-09-07T00:03:02.891Z,100.00
2022-09-07T00:06:08.308Z,100.00
2022-09-07T00:09:10.818Z,100.00
2022-09-07T00:12:13.654Z,100.00
2022-09-07T00:15:16.667Z,100.00
2022-09-07T00:18:19.684Z,100.00
2022-09-07T00:21:22.418Z,100.00
2022-09-07T00:24:25.405Z,100.00
2022-09-07T00:27:28.004Z,100.00
2022-09-07T00:30:30.886Z,100.00
2022-09-07T00:33:33.400Z,100.00
2022-09-07T00:36:36.235Z,100.00
2022-09-07T00:39:38.898Z,100.00
2022-09-07T00:42:41.767Z,100.00
2022-09-07T00:45:44.240Z,100.00
2022-09-07T00:48:53.373Z,100.00
2022-09-07T00:51:59.412Z,100.00
2022-09-07T00:55:06.741Z,100.00
2022-09-07T00:58:09.557Z,100.00
2022-09-07T01:01:12.895Z,100.00
2022-09-07T01:04:15.713Z,100.00
2022-09-07T01:07:19.147Z,100.00
2022-09-07T01:10:28.104Z,100.00
2022-09-07T01:13:31.247Z,100.00
2022-09-07T01:16:46.018Z,100.00
2022-09-07T01:20:00.598Z,100.00
2022-09-07T01:23:33.637Z,100.00
2022-09-07T01:26:39.374Z,100.00
2022-09-07T01:29:47.720Z,100.00
2022-09-07T01:33:32.023Z,100.00
2022-09-07T01:37:18.084Z,100.00
2022-09-07T01:40:41.211Z,100.00
2022-09-07T01:43:58.842Z,100.00
2022-09-07T01:47:07.003Z,100.00
2022-09-07T01:50:17.657Z,100.00
2022-09-07T01:53:28.298Z,100.00
2022-09-07T01:56:37.562Z,100.00
2022-09-07T01:59:51.928Z,100.00
2022-09-07T02:03:14.391Z,100.00
2022-09-07T02:06:25.420Z,100.00
2022-09-07T02:09:38.507Z,100.00
2022-09-07T02:12:47.517Z,100.00
2022-09-07T02:16:01.561Z,100.00
2022-09-07T02:19:14.239Z,100.00
2022-09-07T02:22:21.356Z,100.00
2022-09-07T02:25:26.975Z,100.00
2022-09-07T02:28:34.509Z,100.00
2022-09-07T02:31:37.316Z,100.00
2022-09-07T02:34:39.893Z,100.00
2022-09-07T02:37:43.962Z,100.00
2022-09-07T02:40:54.673Z,100.00
2022-09-07T02:43:57.987Z,100.00
2022-09-07T02:47:15.635Z,100.00
2022-09-07T02:50:32.939Z,100.00
2022-09-07T02:53:41.285Z,100.00
2022-09-07T02:56:51.979Z,100.00
2022-09-07T03:00:34.524Z,100.00
2022-09-07T03:03:58.275Z,100.00
2022-09-07T03:07:17.770Z,100.00
2022-09-07T03:10:20.861Z,100.00
2022-09-07T03:13:28.499Z,100.00
2022-09-07T03:16:31.300Z,100.00
2022-09-07T03:19:33.794Z,100.00
2022-09-07T03:22:36.619Z,100.00
2022-09-07T03:25:39.165Z,100.00
2022-09-07T03:28:42.274Z,100.00
2022-09-07T03:31:44.935Z,100.00
2022-09-07T03:34:48.612Z,100.00
2022-09-07T03:37:51.215Z,100.00
2022-09-07T03:41:02.390Z,100.00
2022-09-07T03:44:06.016Z,100.00
2022-09-07T03:47:08.820Z,100.00
2022-09-07T03:50:11.404Z,100.00
2022-09-07T03:53:14.195Z,100.00
2022-09-07T03:56:19.474Z,100.00
2022-09-07T03:59:22.235Z,100.00
2022-09-07T04:02:24.839Z,100.00
2022-09-07T04:05:27.687Z,100.00
2022-09-07T04:08:32.575Z,100.00
2022-09-07T04:11:35.858Z,100.00
2022-09-07T04:14:38.326Z,100.00
2022-09-07T04:17:41.121Z,100.00
2022-09-07T04:20:44.269Z,100.00
2022-09-07T04:23:47.457Z,100.00
2022-09-07T04:26:50.010Z,100.00
2022-09-07T04:29:52.802Z,100.00
2022-09-07T04:32:55.349Z,100.00
2022-09-07T04:36:00.924Z,100.00
2022-09-07T04:39:04.893Z,100.00
2022-09-07T04:42:07.745Z,100.00
2022-09-07T04:45:10.609Z,100.00
2022-09-07T04:48:13.402Z,100.00
2022-09-07T04:51:16.338Z,100.00
2022-09-07T04:54:20.108Z,100.00
2022-09-07T04:57:25.905Z,100.00
2022-09-07T05:00:29.013Z,100.00
2022-09-07T05:03:33.058Z,100.00
2022-09-07T05:06:35.903Z,100.00
2022-09-07T05:09:38.514Z,100.00
2022-09-07T05:12:41.287Z,100.00
2022-09-07T05:15:43.935Z,100.00
2022-09-07T05:18:55.439Z,100.00
2022-09-07T05:21:58.540Z,100.00
2022-09-07T05:25:01.310Z,100.00
2022-09-07T05:28:04.261Z,100.00
2022-09-07T05:31:19.451Z,100.00
2022-09-07T05:34:30.940Z,100.00
2022-09-07T05:37:34.281Z,100.00
2022-09-07T05:40:40.539Z,99.56
2022-09-07T05:47:07.139Z,93.06
2022-09-07T05:50:10.757Z,93.17
2022-09-07T05:53:13.307Z,94.14
2022-09-07T05:56:16.396Z,94.43
2022-09-07T05:59:18.924Z,94.69
2022-09-07T06:02:21.882Z,94.51
2022-09-07T06:05:24.893Z,93.97
2022-09-07T06:08:27.498Z,93.40
2022-09-07T06:11:30.383Z,92.87
2022-09-07T06:14:35.696Z,92.52
2022-09-07T06:17:38.619Z,91.91
2022-09-07T06:20:41.122Z,91.41
2022-09-07T06:23:44.676Z,91.00
2022-09-07T06:26:47.253Z,90.21
2022-09-07T06:29:50.044Z,89.98
2022-09-07T06:32:52.903Z,88.93
2022-09-07T06:36:00.513Z,88.35
2022-09-07T06:39:03.100Z,88.21
2022-09-07T06:42:06.501Z,87.64
2022-09-07T06:45:17.024Z,86.87
2022-09-07T06:48:19.909Z,86.02
2022-09-07T06:51:26.764Z,85.08
2022-09-07T06:57:53.423Z,83.39
2022-09-07T07:00:56.671Z,82.18
2022-09-07T07:04:00.014Z,81.05
2022-09-07T07:07:02.784Z,78.80
2022-09-07T07:10:05.873Z,76.11
2022-09-07T07:13:08.887Z,74.70
2022-09-07T07:16:13.351Z,73.23
2022-09-07T07:19:16.636Z,74.64
2022-09-07T07:22:43.074Z,75.61
2022-09-07T07:25:42.315Z,74.46
2022-09-07T07:29:03.070Z,72.90
2022-09-07T07:32:06.776Z,70.81
2022-09-07T07:35:10.180Z,67.23
2022-09-07T07:48:21.682Z,58.56
2022-09-07T07:51:24.934Z,55.84
2022-09-07T07:54:27.379Z,53.07
2022-09-07T07:57:30.467Z,54.37
2022-09-07T08:00:53.046Z,52.67
2022-09-07T08:03:55.860Z,50.38
2022-09-07T08:06:58.332Z,49.48
2022-09-07T08:10:01.180Z,46.62
2022-09-07T08:13:03.981Z,47.32
2022-09-07T08:16:08.074Z,47.86
2022-09-07T08:19:10.593Z,48.66
2022-09-07T08:22:13.392Z,49.05
2022-09-07T08:25:15.920Z,47.99
2022-09-07T08:28:19.756Z,46.23
2022-09-07T08:31:23.210Z,45.77
2022-09-07T08:34:27.187Z,47.70
2022-09-07T08:37:29.970Z,46.78
2022-09-07T08:40:36.514Z,45.89
2022-09-07T08:43:50.089Z,45.42
2022-09-07T08:46:56.748Z,46.20
2022-09-07T08:50:12.022Z,43.68
2022-09-07T08:53:17.032Z,43.65
2022-09-07T08:56:26.084Z,41.21
2022-09-07T08:59:40.132Z,47.28
2022-09-07T09:02:45.530Z,40.53
2022-09-07T09:06:01.704Z,41.40
2022-09-07T09:09:19.384Z,40.68
2022-09-07T09:12:29.183Z,43.01
2022-09-07T09:15:58.919Z,41.86
2022-09-07T09:19:47.342Z,37.33
2022-09-07T09:22:52.253Z,37.06
2022-09-07T09:26:00.149Z,39.82
2022-09-07T09:29:20.929Z,40.21
2022-09-07T09:32:45.474Z,40.49
2022-09-07T09:35:50.970Z,37.79
2022-09-07T09:38:53.828Z,37.28
2022-09-07T09:41:59.091Z,37.65
2022-09-07T09:45:22.044Z,37.17
2022-09-07T09:48:32.862Z,39.19
2022-09-07T09:55:36.392Z,36.72
2022-09-07T10:05:39.663Z,38.85
2022-09-07T10:08:54.878Z,38.98
2022-09-07T10:12:07.254Z,35.98
2022-09-07T10:15:41.324Z,38.01
2022-09-07T10:18:58.761Z,36.18
2022-09-07T10:22:04.789Z,36.55
2022-09-07T10:25:32.540Z,36.45
2022-09-07T10:32:12.749Z,36.35
2022-09-07T10:35:20.683Z,35.82
2022-09-07T10:38:25.089Z,33.03
2022-09-07T10:41:37.323Z,33.87
2022-09-07T10:44:55.749Z,35.49
2022-09-07T10:48:32.464Z,33.63
2022-09-07T10:51:51.166Z,37.27
2022-09-07T10:54:56.501Z,35.75
2022-09-07T11:02:10.270Z,33.60
2022-09-07T11:05:38.517Z,34.75
2022-09-07T11:12:24.909Z,37.42
2022-09-07T11:15:40.313Z,35.16
2022-09-07T11:22:47.232Z,37.00
2022-09-07T11:26:08.871Z,36.78
2022-09-07T11:29:34.940Z,36.92
2022-09-07T11:32:38.748Z,36.89
2022-09-07T11:35:53.829Z,36.93
2022-09-07T11:39:07.782Z,37.70
2022-09-07T11:42:48.803Z,39.55
2022-09-07T11:45:55.386Z,39.17
2022-09-07T11:48:58.946Z,39.18
2022-09-07T11:52:06.160Z,38.27
2022-09-07T11:55:12.763Z,37.95
2022-09-07T11:58:37.979Z,39.13
2022-09-07T12:02:04.052Z,38.90
2022-09-07T12:05:38.423Z,38.75
2022-09-07T12:08:56.018Z,38.35
2022-09-07T12:12:42.188Z,39.41
2022-09-07T12:15:57.881Z,38.10
2022-09-07T12:19:12.919Z,41.32
2022-09-07T12:22:22.526Z,45.95
2022-09-07T12:25:25.903Z,44.69
2022-09-07T12:28:34.261Z,44.53
2022-09-07T12:31:59.166Z,45.58
2022-09-07T12:35:02.385Z,45.11
2022-09-07T12:38:30.815Z,44.87
2022-09-07T12:41:47.432Z,45.21
2022-09-07T12:45:35.819Z,45.36
2022-09-07T12:48:48.745Z,44.49
2022-09-07T12:52:15.121Z,45.93
2022-09-07T12:56:15.138Z,46.18
2022-09-07T12:59:30.871Z,47.32
2022-09-07T13:02:58.632Z,47.43
2022-09-07T13:10:00.354Z,47.16
2022-09-07T13:13:16.790Z,47.19
2022-09-07T13:16:30.714Z,46.73
2022-09-07T13:19:57.033Z,46.70
2022-09-07T13:23:23.817Z,47.67
2022-09-07T13:26:58.548Z,47.74
2022-09-07T13:30:07.280Z,48.99
2022-09-07T13:33:26.012Z,49.67
2022-09-07T13:36:45.684Z,50.68
2022-09-07T13:39:49.724Z,50.66
2022-09-07T13:42:52.717Z,49.90
2022-09-07T13:45:55.565Z,50.10
2022-09-07T13:49:06.958Z,51.09
2022-09-07T13:52:15.682Z,50.17
2022-09-07T13:55:46.588Z,49.84
2022-09-07T13:58:52.125Z,50.10
2022-09-07T14:01:55.812Z,49.04
2022-09-07T14:05:00.579Z,50.23
2022-09-07T14:08:03.426Z,49.83
2022-09-07T14:11:20.782Z,50.15
2022-09-07T14:14:29.567Z,50.89
2022-09-07T14:17:32.338Z,50.43
2022-09-07T14:20:40.552Z,50.55
2022-09-07T14:23:43.240Z,50.82
2022-09-07T14:26:48.257Z,49.47
2022-09-07T14:29:51.173Z,49.08
2022-09-07T14:33:00.763Z,49.01
2022-09-07T14:36:23.343Z,48.19
2022-09-07T14:39:29.821Z,48.33
2022-09-07T14:42:32.670Z,48.11
2022-09-07T14:45:36.221Z,48.06
2022-09-07T14:48:40.556Z,48.08
2022-09-07T14:51:44.647Z,48.33
2022-09-07T14:54:51.483Z,48.08
2022-09-07T14:58:15.902Z,48.25
2022-09-07T15:01:38.151Z,48.49
2022-09-07T15:04:40.871Z,48.29
2022-09-07T15:07:47.961Z,47.50
2022-09-07T15:14:25.288Z,48.09
2022-09-07T15:17:48.172Z,48.75
2022-09-07T15:20:51.243Z,49.64
2022-09-07T15:23:57.109Z,50.43
2022-09-07T15:27:03.509Z,49.42
2022-09-07T15:30:06.847Z,50.06
2022-09-07T15:33:11.475Z,49.92
2022-09-07T15:36:15.842Z,50.56
2022-09-07T15:39:21.265Z,50.59
2022-09-07T15:45:48.117Z,52.27
2022-09-07T15:48:53.678Z,52.75
2022-09-07T15:52:05.098Z,53.34
2022-09-07T15:55:08.846Z,53.69
2022-09-07T15:58:12.552Z,54.27
2022-09-07T16:04:38.788Z,53.68
2022-09-07T16:11:18.537Z,54.94
2022-09-07T16:14:21.466Z,55.45
2022-09-07T16:17:33.991Z,56.29
2022-09-07T16:20:38.863Z,56.50
2022-09-07T16:23:43.964Z,57.67
2022-09-07T16:26:46.412Z,57.32
2022-09-07T16:29:49.262Z,57.89
2022-09-07T16:32:51.830Z,57.94
2022-09-07T16:36:02.926Z,58.19
2022-09-07T16:39:05.395Z,59.40
2022-09-07T16:42:08.948Z,59.23
2022-09-07T16:48:35.790Z,59.98
2022-09-07T16:51:39.696Z,60.61
2022-09-07T16:54:42.856Z,61.04
2022-09-07T17:01:10.281Z,61.87
2022-09-07T17:04:13.208Z,62.92
2022-09-07T17:07:15.905Z,62.84
2022-09-07T17:10:18.392Z,63.25
2022-09-07T17:13:21.109Z,63.65
2022-09-07T17:16:26.445Z,64.07
2022-09-07T17:19:29.770Z,64.48
2022-09-07T17:22:32.636Z,65.02
2022-09-07T17:25:35.385Z,65.37
2022-09-07T17:28:38.664Z,66.45
2022-09-07T17:35:04.539Z,68.00
2022-09-07T17:41:33.887Z,69.34
2022-09-07T17:44:38.422Z,69.74
2022-09-07T17:47:41.040Z,69.90
2022-09-07T17:50:43.764Z,70.38
2022-09-07T17:53:46.332Z,70.55
2022-09-07T17:56:49.109Z,70.67
2022-09-07T18:03:14.375Z,70.88
2022-09-07T18:06:16.804Z,71.79
2022-09-07T18:09:19.972Z,71.40
2022-09-07T18:12:22.760Z,72.22
2022-09-07T18:15:25.534Z,74.36
2022-09-07T18:18:28.473Z,76.31
2022-09-07T18:21:33.420Z,77.43
2022-09-07T18:24:36.951Z,75.77
2022-09-07T18:27:40.446Z,75.99
2022-09-07T18:30:43.097Z,76.38
2022-09-07T18:33:47.458Z,78.60
2022-09-07T18:36:50.304Z,78.69
2022-09-07T18:39:54.363Z,78.31
2022-09-07T18:42:57.541Z,78.33
2022-09-07T18:46:08.507Z,78.63
2022-09-07T18:49:11.129Z,78.52
2022-09-07T18:55:36.267Z,79.16
2022-09-07T18:58:39.254Z,80.79
2022-09-07T19:01:41.889Z,79.60
2022-09-07T19:08:08.589Z,79.62
2022-09-07T19:11:13.495Z,80.06
2022-09-07T19:14:17.488Z,79.49
2022-09-07T19:17:20.380Z,80.49
2022-09-07T19:20:23.002Z,80.67
2022-09-07T19:23:25.701Z,81.20
2022-09-07T19:26:30.205Z,82.77
2022-09-07T19:29:33.157Z,84.52
2022-09-07T19:32:35.690Z,82.55
2022-09-07T19:35:38.527Z,84.23
2022-09-07T19:38:41.088Z,84.36
2022-09-07T19:41:45.238Z,84.56
2022-09-07T19:44:48.017Z,83.35
2022-09-07T19:47:50.738Z,83.42
2022-09-07T19:50:53.500Z,84.04
2022-09-07T19:53:56.225Z,84.21
2022-09-07T19:56:58.817Z,85.24
2022-09-07T20:00:01.692Z,85.30
2022-09-07T20:03:14.190Z,88.35
2022-09-07T20:06:18.292Z,88.75
2022-09-07T20:09:20.749Z,88.36
2022-09-07T20:12:23.475Z,86.69
2022-09-07T20:15:26.302Z,87.91
2022-09-07T20:18:29.036Z,87.38
2022-09-07T20:21:31.499Z,86.93
2022-09-07T20:24:35.230Z,87.32
2022-09-07T20:27:37.635Z,89.07
2022-09-07T20:30:44.077Z,87.89
2022-09-07T20:33:47.854Z,88.39
2022-09-07T20:36:50.966Z,88.92
2022-09-07T20:39:53.436Z,88.50
2022-09-07T20:42:56.225Z,90.17
2022-09-07T20:45:59.673Z,88.93
2022-09-07T20:49:02.396Z,90.63
2022-09-07T20:52:04.837Z,90.34
2022-09-07T20:55:07.993Z,90.43
2022-09-07T20:58:10.540Z,89.72
2022-09-07T21:01:15.205Z,90.16
2022-09-07T21:04:17.803Z,89.55
2022-09-07T21:07:20.485Z,89.92
2022-09-07T21:10:22.900Z,89.83
2022-09-07T21:13:25.591Z,91.39
2022-09-07T21:16:28.845Z,92.48
2022-09-07T21:19:31.596Z,93.30
2022-09-07T21:22:34.091Z,93.37
2022-09-07T21:25:44.039Z,93.12
2022-09-07T21:28:46.480Z,92.54
2022-09-07T21:31:49.653Z,93.87
2022-09-07T21:34:52.119Z,92.24
2022-09-07T21:37:54.811Z,93.08
2022-09-07T21:40:57.251Z,92.61
2022-09-07T21:44:01.943Z,93.37
2022-09-07T21:47:04.571Z,92.74
2022-09-07T21:50:07.774Z,94.20
2022-09-07T21:53:10.874Z,95.39
2022-09-07T21:56:14.373Z,94.60
2022-09-07T21:59:16.873Z,93.97
2022-09-07T22:02:19.673Z,94.72
2022-09-07T22:05:22.408Z,95.56
2022-09-07T22:08:24.815Z,94.71
2022-09-07T22:11:29.115Z,95.51
2022-09-07T22:14:31.612Z,96.11
2022-09-07T22:17:34.513Z,94.75
2022-09-07T22:20:36.959Z,95.44
2022-09-07T22:23:42.675Z,95.73
2022-09-07T22:26:46.397Z,96.59
2022-09-07T22:29:49.102Z,97.35
2022-09-07T22:32:51.858Z,95.81
2022-09-07T22:35:54.535Z,97.70
2022-09-07T22:38:59.297Z,96.16
2022-09-07T22:42:01.981Z,97.17
2022-09-07T22:45:05.885Z,98.71
2022-09-07T22:48:08.734Z,97.36
2022-09-07T22:51:11.714Z,99.19
2022-09-07T22:54:14.449Z,98.19
2022-09-07T22:57:16.928Z,99.64
2022-09-07T23:00:20.073Z,99.91
2022-09-07T23:03:22.539Z,100.00
2022-09-07T23:06:30.660Z,99.09
2022-09-07T23:09:33.156Z,99.72
2022-09-07T23:12:35.888Z,100.00
2022-09-07T23:15:38.806Z,100.00
2022-09-07T23:18:41.645Z,100.00
2022-09-07T23:21:44.119Z,100.00
2022-09-07T23:24:46.847Z,100.00
2022-09-07T23:27:49.281Z,100.00
2022-09-07T23:30:52.013Z,100.00
2022-09-07T23:33:55.666Z,100.00
2022-09-07T23:36:58.377Z,100.00
2022-09-07T23:40:00.855Z,100.00
2022-09-07T23:43:03.570Z,100.00
2022-09-07T23:46:06.129Z,100.00
2022-09-07T23:49:08.916Z,100.00
2022-09-07T23:52:11.309Z,100.00
2022-09-07T23:55:13.999Z,100.00
2022-09-07T23:58:16.570Z,100.00
